sensor_id;sensor_type;location;lat;lon;timestamp;P1;durP1;ratioP1;P2;durP2;ratioP2
83410;SDS011;73340;53.132;8.174;2023-11-21T00:01:42;16.10;;;6.83;;
83410;SDS011;73340;53.132;8.174;2023-11-21T00:04:08;19.88;;;6.43;;
83410;SDS011;73340;53.132;8.174;2023-11-21T00:06:33;18.97;;;6.33;;
83410;SDS011;73340;53.132;8.174;2023-11-21T00:08:59;21.50;;;6.85;;
83410;SDS011;73340;53.132;8.174;2023-11-21T00:11:24;15.00;;;6.07;;
83410;SDS011;73340;53.132;8.174;2023-11-21T00:13:50;16.70;;;5.95;;
83410;SDS011;73340;53.132;8.174;2023-11-21T00:16:15;20.30;;;6.40;;
83410;SDS011;73340;53.132;8.174;2023-11-21T00:18:40;14.70;;;6.37;;
83410;SDS011;73340;53.132;8.174;2023-11-21T00:21:06;17.95;;;6.38;;
83410;SDS011;73340;53.132;8.174;2023-11-21T00:23:32;18.53;;;6.70;;
83410;SDS011;73340;53.132;8.174;2023-11-21T00:25:57;14.70;;;6.33;;
83410;SDS011;73340;53.132;8.174;2023-11-21T00:28:22;23.23;;;7.70;;
83410;SDS011;73340;53.132;8.174;2023-11-21T00:30:48;20.27;;;6.00;;
83410;SDS011;73340;53.132;8.174;2023-11-21T00:33:13;16.43;;;6.17;;
83410;SDS011;73340;53.132;8.174;2023-11-21T00:35:38;19.20;;;6.57;;
83410;SDS011;73340;53.132;8.174;2023-11-21T00:38:04;15.70;;;6.60;;
83410;SDS011;73340;53.132;8.174;2023-11-21T00:40:29;18.97;;;6.70;;
83410;SDS011;73340;53.132;8.174;2023-11-21T00:42:54;17.33;;;6.33;;
83410;SDS011;73340;53.132;8.174;2023-11-21T00:45:21;16.65;;;6.95;;
83410;SDS011;73340;53.132;8.174;2023-11-21T00:47:46;16.83;;;6.10;;
83410;SDS011;73340;53.132;8.174;2023-11-21T00:50:11;18.60;;;6.17;;
83410;SDS011;73340;53.132;8.174;2023-11-21T00:52:36;15.38;;;6.63;;
83410;SDS011;73340;53.132;8.174;2023-11-21T00:55:02;15.97;;;7.20;;
83410;SDS011;73340;53.132;8.174;2023-11-21T00:57:28;17.67;;;6.63;;
83410;SDS011;73340;53.132;8.174;2023-11-21T00:59:53;20.52;;;7.68;;
83410;SDS011;73340;53.132;8.174;2023-11-21T01:02:18;19.17;;;7.03;;
83410;SDS011;73340;53.132;8.174;2023-11-21T01:04:44;23.00;;;7.40;;
83410;SDS011;73340;53.132;8.174;2023-11-21T01:07:09;17.77;;;6.90;;
83410;SDS011;73340;53.132;8.174;2023-11-21T01:09:34;24.63;;;7.03;;
83410;SDS011;73340;53.132;8.174;2023-11-21T01:11:59;21.30;;;6.20;;
83410;SDS011;73340;53.132;8.174;2023-11-21T01:14:24;20.10;;;7.23;;
83410;SDS011;73340;53.132;8.174;2023-11-21T01:16:51;18.05;;;6.80;;
83410;SDS011;73340;53.132;8.174;2023-11-21T01:19:16;21.77;;;8.90;;
83410;SDS011;73340;53.132;8.174;2023-11-21T01:21:41;21.93;;;8.37;;
83410;SDS011;73340;53.132;8.174;2023-11-21T01:24:07;19.52;;;7.55;;
83410;SDS011;73340;53.132;8.174;2023-11-21T01:26:32;18.60;;;7.33;;
83410;SDS011;73340;53.132;8.174;2023-11-21T01:28:58;25.00;;;7.88;;
83410;SDS011;73340;53.132;8.174;2023-11-21T01:31:23;19.37;;;8.13;;
83410;SDS011;73340;53.132;8.174;2023-11-21T01:33:48;20.90;;;8.40;;
83410;SDS011;73340;53.132;8.174;2023-11-21T01:36:13;22.47;;;7.47;;
83410;SDS011;73340;53.132;8.174;2023-11-21T01:38:39;25.00;;;8.53;;
83410;SDS011;73340;53.132;8.174;2023-11-21T01:41:04;26.50;;;8.70;;
83410;SDS011;73340;53.132;8.174;2023-11-21T01:43:29;25.00;;;8.20;;
83410;SDS011;73340;53.132;8.174;2023-11-21T01:45:57;21.75;;;9.15;;
83410;SDS011;73340;53.132;8.174;2023-11-21T01:48:22;21.30;;;8.57;;
83410;SDS011;73340;53.132;8.174;2023-11-21T01:50:48;29.27;;;9.60;;
83410;SDS011;73340;53.132;8.174;2023-11-21T01:53:13;28.58;;;9.52;;
83410;SDS011;73340;53.132;8.174;2023-11-21T01:55:39;22.92;;;8.82;;
83410;SDS011;73340;53.132;8.174;2023-11-21T01:58:05;21.10;;;8.70;;
83410;SDS011;73340;53.132;8.174;2023-11-21T02:00:30;18.13;;;7.43;;
83410;SDS011;73340;53.132;8.174;2023-11-21T02:02:56;20.67;;;9.30;;
83410;SDS011;73340;53.132;8.174;2023-11-21T02:05:21;20.05;;;9.15;;
83410;SDS011;73340;53.132;8.174;2023-11-21T02:07:47;21.25;;;9.60;;
83410;SDS011;73340;53.132;8.174;2023-11-21T02:10:13;22.35;;;9.20;;
83410;SDS011;73340;53.132;8.174;2023-11-21T02:12:40;22.30;;;8.82;;
83410;SDS011;73340;53.132;8.174;2023-11-21T02:15:05;21.73;;;9.40;;
83410;SDS011;73340;53.132;8.174;2023-11-21T02:17:35;20.92;;;9.43;;
83410;SDS011;73340;53.132;8.174;2023-11-21T02:20:00;22.02;;;10.70;;
83410;SDS011;73340;53.132;8.174;2023-11-21T02:22:26;23.67;;;9.30;;
83410;SDS011;73340;53.132;8.174;2023-11-21T02:24:54;17.85;;;8.32;;
83410;SDS011;73340;53.132;8.174;2023-11-21T02:27:19;26.13;;;9.98;;
83410;SDS011;73340;53.132;8.174;2023-11-21T02:29:46;25.00;;;9.05;;
83410;SDS011;73340;53.132;8.174;2023-11-21T02:32:12;26.38;;;9.57;;
83410;SDS011;73340;53.132;8.174;2023-11-21T02:34:37;26.97;;;9.47;;
83410;SDS011;73340;53.132;8.174;2023-11-21T02:37:04;23.45;;;9.40;;
83410;SDS011;73340;53.132;8.174;2023-11-21T02:39:30;23.55;;;9.40;;
83410;SDS011;73340;53.132;8.174;2023-11-21T02:41:56;25.23;;;9.40;;
83410;SDS011;73340;53.132;8.174;2023-11-21T02:44:22;26.17;;;9.73;;
83410;SDS011;73340;53.132;8.174;2023-11-21T02:46:47;22.07;;;8.83;;
83410;SDS011;73340;53.132;8.174;2023-11-21T02:49:12;24.63;;;9.45;;
83410;SDS011;73340;53.132;8.174;2023-11-21T02:51:38;22.02;;;8.38;;
83410;SDS011;73340;53.132;8.174;2023-11-21T02:54:04;22.75;;;9.15;;
83410;SDS011;73340;53.132;8.174;2023-11-21T02:56:31;24.05;;;10.02;;
83410;SDS011;73340;53.132;8.174;2023-11-21T02:58:57;21.30;;;9.00;;
83410;SDS011;73340;53.132;8.174;2023-11-21T03:01:22;23.70;;;9.50;;
83410;SDS011;73340;53.132;8.174;2023-11-21T03:03:48;19.33;;;8.43;;
83410;SDS011;73340;53.132;8.174;2023-11-21T03:06:16;15.77;;;7.70;;
83410;SDS011;73340;53.132;8.174;2023-11-21T03:08:41;17.80;;;7.90;;
83410;SDS011;73340;53.132;8.174;2023-11-21T03:11:07;25.67;;;10.15;;
83410;SDS011;73340;53.132;8.174;2023-11-21T03:13:33;20.35;;;8.95;;
83410;SDS011;73340;53.132;8.174;2023-11-21T03:15:58;16.60;;;7.13;;
83410;SDS011;73340;53.132;8.174;2023-11-21T03:18:23;22.80;;;8.10;;
83410;SDS011;73340;53.132;8.174;2023-11-21T03:20:48;21.87;;;7.70;;
83410;SDS011;73340;53.132;8.174;2023-11-21T03:23:13;23.20;;;8.53;;
83410;SDS011;73340;53.132;8.174;2023-11-21T03:25:39;21.30;;;7.88;;
83410;SDS011;73340;53.132;8.174;2023-11-21T03:28:04;25.17;;;8.50;;
83410;SDS011;73340;53.132;8.174;2023-11-21T03:30:30;19.33;;;7.80;;
83410;SDS011;73340;53.132;8.174;2023-11-21T03:32:55;27.00;;;9.05;;
83410;SDS011;73340;53.132;8.174;2023-11-21T03:35:20;25.40;;;8.23;;
83410;SDS011;73340;53.132;8.174;2023-11-21T03:37:46;21.85;;;8.40;;
83410;SDS011;73340;53.132;8.174;2023-11-21T03:40:11;24.92;;;8.73;;
83410;SDS011;73340;53.132;8.174;2023-11-21T03:42:37;18.25;;;7.20;;
83410;SDS011;73340;53.132;8.174;2023-11-21T03:45:03;21.23;;;8.43;;
83410;SDS011;73340;53.132;8.174;2023-11-21T03:47:28;23.23;;;7.70;;
83410;SDS011;73340;53.132;8.174;2023-11-21T03:49:53;20.10;;;7.87;;
83410;SDS011;73340;53.132;8.174;2023-11-21T03:52:18;19.00;;;8.33;;
83410;SDS011;73340;53.132;8.174;2023-11-21T03:54:43;24.03;;;9.10;;
83410;SDS011;73340;53.132;8.174;2023-11-21T03:57:09;19.07;;;8.00;;
83410;SDS011;73340;53.132;8.174;2023-11-21T03:59:34;25.30;;;10.63;;
83410;SDS011;73340;53.132;8.174;2023-11-21T04:01:59;21.33;;;8.05;;
83410;SDS011;73340;53.132;8.174;2023-11-21T04:04:24;23.40;;;8.33;;
83410;SDS011;73340;53.132;8.174;2023-11-21T04:06:50;20.47;;;8.40;;
83410;SDS011;73340;53.132;8.174;2023-11-21T04:09:17;24.65;;;9.20;;
83410;SDS011;73340;53.132;8.174;2023-11-21T04:11:42;32.08;;;10.40;;
83410;SDS011;73340;53.132;8.174;2023-11-21T04:14:08;24.23;;;9.27;;
83410;SDS011;73340;53.132;8.174;2023-11-21T04:16:34;31.35;;;9.80;;
83410;SDS011;73340;53.132;8.174;2023-11-21T04:18:59;27.20;;;8.80;;
83410;SDS011;73340;53.132;8.174;2023-11-21T04:21:24;26.60;;;9.32;;
83410;SDS011;73340;53.132;8.174;2023-11-21T04:23:49;32.87;;;9.50;;
83410;SDS011;73340;53.132;8.174;2023-11-21T04:26:15;29.30;;;10.35;;
83410;SDS011;73340;53.132;8.174;2023-11-21T04:28:40;24.47;;;8.60;;
83410;SDS011;73340;53.132;8.174;2023-11-21T04:31:05;33.17;;;10.37;;
83410;SDS011;73340;53.132;8.174;2023-11-21T04:33:32;34.03;;;10.25;;
83410;SDS011;73340;53.132;8.174;2023-11-21T04:35:57;31.50;;;11.53;;
83410;SDS011;73340;53.132;8.174;2023-11-21T04:38:22;38.37;;;12.50;;
83410;SDS011;73340;53.132;8.174;2023-11-21T04:40:47;37.83;;;12.10;;
83410;SDS011;73340;53.132;8.174;2023-11-21T04:43:12;34.33;;;12.80;;
83410;SDS011;73340;53.132;8.174;2023-11-21T04:45:38;35.03;;;11.93;;
83410;SDS011;73340;53.132;8.174;2023-11-21T04:48:03;36.17;;;11.65;;
83410;SDS011;73340;53.132;8.174;2023-11-21T04:50:28;41.28;;;13.35;;
83410;SDS011;73340;53.132;8.174;2023-11-21T04:52:54;33.90;;;13.13;;
83410;SDS011;73340;53.132;8.174;2023-11-21T04:55:19;38.90;;;13.70;;
83410;SDS011;73340;53.132;8.174;2023-11-21T04:57:44;38.28;;;13.27;;
83410;SDS011;73340;53.132;8.174;2023-11-21T05:00:10;40.45;;;14.27;;
83410;SDS011;73340;53.132;8.174;2023-11-21T05:02:36;39.42;;;14.07;;
83410;SDS011;73340;53.132;8.174;2023-11-21T05:05:01;38.73;;;14.47;;
83410;SDS011;73340;53.132;8.174;2023-11-21T05:07:27;44.03;;;15.48;;
83410;SDS011;73340;53.132;8.174;2023-11-21T05:09:54;34.88;;;12.57;;
83410;SDS011;73340;53.132;8.174;2023-11-21T05:12:19;35.33;;;13.75;;
83410;SDS011;73340;53.132;8.174;2023-11-21T05:14:44;36.83;;;14.47;;
83410;SDS011;73340;53.132;8.174;2023-11-21T05:17:09;40.97;;;15.37;;
83410;SDS011;73340;53.132;8.174;2023-11-21T05:19:34;39.97;;;14.47;;
83410;SDS011;73340;53.132;8.174;2023-11-21T05:22:00;35.88;;;12.98;;
83410;SDS011;73340;53.132;8.174;2023-11-21T05:24:26;37.20;;;14.07;;
83410;SDS011;73340;53.132;8.174;2023-11-21T05:26:51;35.42;;;13.93;;
83410;SDS011;73340;53.132;8.174;2023-11-21T05:29:16;34.57;;;12.07;;
83410;SDS011;73340;53.132;8.174;2023-11-21T05:31:41;31.97;;;12.47;;
83410;SDS011;73340;53.132;8.174;2023-11-21T05:34:06;28.93;;;11.00;;
83410;SDS011;73340;53.132;8.174;2023-11-21T05:36:32;29.33;;;11.13;;
83410;SDS011;73340;53.132;8.174;2023-11-21T05:38:57;30.73;;;11.53;;
83410;SDS011;73340;53.132;8.174;2023-11-21T05:41:22;36.80;;;13.33;;
83410;SDS011;73340;53.132;8.174;2023-11-21T05:43:48;35.55;;;13.07;;
83410;SDS011;73340;53.132;8.174;2023-11-21T05:46:13;31.50;;;12.00;;
83410;SDS011;73340;53.132;8.174;2023-11-21T05:48:38;26.57;;;10.50;;
83410;SDS011;73340;53.132;8.174;2023-11-21T05:51:04;26.53;;;10.13;;
83410;SDS011;73340;53.132;8.174;2023-11-21T05:53:30;25.08;;;9.77;;
83410;SDS011;73340;53.132;8.174;2023-11-21T05:55:55;23.63;;;9.77;;
83410;SDS011;73340;53.132;8.174;2023-11-21T05:58:20;25.87;;;9.90;;
83410;SDS011;73340;53.132;8.174;2023-11-21T06:00:46;22.47;;;11.23;;
83410;SDS011;73340;53.132;8.174;2023-11-21T06:03:11;28.00;;;10.73;;
83410;SDS011;73340;53.132;8.174;2023-11-21T06:05:37;27.00;;;10.15;;
83410;SDS011;73340;53.132;8.174;2023-11-21T06:08:02;23.80;;;10.40;;
83410;SDS011;73340;53.132;8.174;2023-11-21T06:10:27;34.23;;;11.40;;
83410;SDS011;73340;53.132;8.174;2023-11-21T06:12:53;29.48;;;11.23;;
83410;SDS011;73340;53.132;8.174;2023-11-21T06:15:18;30.98;;;11.48;;
83410;SDS011;73340;53.132;8.174;2023-11-21T06:17:45;28.63;;;10.02;;
83410;SDS011;73340;53.132;8.174;2023-11-21T06:20:14;24.48;;;9.93;;
83410;SDS011;73340;53.132;8.174;2023-11-21T06:22:40;26.40;;;10.00;;
83410;SDS011;73340;53.132;8.174;2023-11-21T06:25:05;28.73;;;10.52;;
83410;SDS011;73340;53.132;8.174;2023-11-21T06:27:31;25.30;;;10.55;;
83410;SDS011;73340;53.132;8.174;2023-11-21T06:29:57;28.73;;;11.13;;
83410;SDS011;73340;53.132;8.174;2023-11-21T06:32:22;26.10;;;10.53;;
83410;SDS011;73340;53.132;8.174;2023-11-21T06:34:47;26.90;;;11.33;;
83410;SDS011;73340;53.132;8.174;2023-11-21T06:37:13;26.42;;;11.13;;
83410;SDS011;73340;53.132;8.174;2023-11-21T06:39:38;26.50;;;10.20;;
83410;SDS011;73340;53.132;8.174;2023-11-21T06:42:03;24.20;;;10.27;;
83410;SDS011;73340;53.132;8.174;2023-11-21T06:44:29;24.67;;;10.10;;
83410;SDS011;73340;53.132;8.174;2023-11-21T06:46:54;22.00;;;9.23;;
83410;SDS011;73340;53.132;8.174;2023-11-21T06:49:19;23.23;;;8.83;;
83410;SDS011;73340;53.132;8.174;2023-11-21T06:51:45;19.13;;;8.18;;
83410;SDS011;73340;53.132;8.174;2023-11-21T06:54:10;19.47;;;8.57;;
83410;SDS011;73340;53.132;8.174;2023-11-21T06:56:35;19.97;;;9.00;;
83410;SDS011;73340;53.132;8.174;2023-11-21T06:59:00;18.17;;;7.87;;
83410;SDS011;73340;53.132;8.174;2023-11-21T07:01:26;15.30;;;7.33;;
83410;SDS011;73340;53.132;8.174;2023-11-21T07:03:51;14.83;;;7.37;;
83410;SDS011;73340;53.132;8.174;2023-11-21T07:06:16;16.40;;;6.80;;
83410;SDS011;73340;53.132;8.174;2023-11-21T07:08:42;14.43;;;6.55;;
83410;SDS011;73340;53.132;8.174;2023-11-21T07:11:07;13.77;;;6.95;;
83410;SDS011;73340;53.132;8.174;2023-11-21T07:13:32;14.83;;;7.10;;
83410;SDS011;73340;53.132;8.174;2023-11-21T07:15:58;14.53;;;7.17;;
83410;SDS011;73340;53.132;8.174;2023-11-21T07:18:23;14.55;;;6.85;;
83410;SDS011;73340;53.132;8.174;2023-11-21T07:20:49;10.53;;;5.87;;
83410;SDS011;73340;53.132;8.174;2023-11-21T07:23:14;12.98;;;6.07;;
83410;SDS011;73340;53.132;8.174;2023-11-21T07:25:40;15.23;;;6.55;;
83410;SDS011;73340;53.132;8.174;2023-11-21T07:28:06;15.55;;;7.20;;
83410;SDS011;73340;53.132;8.174;2023-11-21T07:30:32;14.07;;;7.00;;
83410;SDS011;73340;53.132;8.174;2023-11-21T07:32:57;13.15;;;7.15;;
83410;SDS011;73340;53.132;8.174;2023-11-21T07:35:22;15.60;;;8.37;;
83410;SDS011;73340;53.132;8.174;2023-11-21T07:37:47;16.73;;;7.70;;
83410;SDS011;73340;53.132;8.174;2023-11-21T07:40:13;14.25;;;7.00;;
83410;SDS011;73340;53.132;8.174;2023-11-21T07:42:39;17.70;;;7.38;;
83410;SDS011;73340;53.132;8.174;2023-11-21T07:45:04;19.27;;;7.27;;
83410;SDS011;73340;53.132;8.174;2023-11-21T07:47:30;16.88;;;7.75;;
83410;SDS011;73340;53.132;8.174;2023-11-21T07:49:55;17.33;;;7.87;;
83410;SDS011;73340;53.132;8.174;2023-11-21T07:52:23;14.75;;;7.03;;
83410;SDS011;73340;53.132;8.174;2023-11-21T07:54:49;17.38;;;7.07;;
83410;SDS011;73340;53.132;8.174;2023-11-21T07:57:14;15.27;;;7.53;;
83410;SDS011;73340;53.132;8.174;2023-11-21T07:59:40;14.27;;;7.13;;
83410;SDS011;73340;53.132;8.174;2023-11-21T08:02:06;16.40;;;7.20;;
83410;SDS011;73340;53.132;8.174;2023-11-21T08:04:31;16.38;;;7.28;;
83410;SDS011;73340;53.132;8.174;2023-11-21T08:06:57;15.82;;;7.35;;
83410;SDS011;73340;53.132;8.174;2023-11-21T08:09:22;13.40;;;6.43;;
83410;SDS011;73340;53.132;8.174;2023-11-21T08:11:48;14.15;;;7.43;;
83410;SDS011;73340;53.132;8.174;2023-11-21T08:14:14;14.17;;;6.67;;
83410;SDS011;73340;53.132;8.174;2023-11-21T08:16:39;12.50;;;6.30;;
83410;SDS011;73340;53.132;8.174;2023-11-21T08:19:05;16.70;;;7.43;;
83410;SDS011;73340;53.132;8.174;2023-11-21T08:21:31;12.88;;;6.72;;
83410;SDS011;73340;53.132;8.174;2023-11-21T08:23:56;13.73;;;6.87;;
83410;SDS011;73340;53.132;8.174;2023-11-21T08:26:21;12.43;;;6.70;;
83410;SDS011;73340;53.132;8.174;2023-11-21T08:28:47;17.15;;;7.18;;
83410;SDS011;73340;53.132;8.174;2023-11-21T08:31:13;16.90;;;7.50;;
83410;SDS011;73340;53.132;8.174;2023-11-21T08:33:38;15.97;;;7.83;;
83410;SDS011;73340;53.132;8.174;2023-11-21T08:36:06;11.83;;;6.47;;
83410;SDS011;73340;53.132;8.174;2023-11-21T08:38:32;15.15;;;7.07;;
83410;SDS011;73340;53.132;8.174;2023-11-21T08:40:57;14.77;;;7.37;;
83410;SDS011;73340;53.132;8.174;2023-11-21T08:43:22;14.47;;;6.47;;
83410;SDS011;73340;53.132;8.174;2023-11-21T08:45:47;17.53;;;8.13;;
83410;SDS011;73340;53.132;8.174;2023-11-21T08:48:13;14.90;;;7.20;;
83410;SDS011;73340;53.132;8.174;2023-11-21T08:50:38;17.43;;;7.73;;
83410;SDS011;73340;53.132;8.174;2023-11-21T08:53:03;15.20;;;6.77;;
83410;SDS011;73340;53.132;8.174;2023-11-21T08:55:28;14.90;;;7.33;;
83410;SDS011;73340;53.132;8.174;2023-11-21T08:57:53;17.73;;;7.40;;
83410;SDS011;73340;53.132;8.174;2023-11-21T09:00:19;15.70;;;7.13;;
83410;SDS011;73340;53.132;8.174;2023-11-21T09:02:44;13.33;;;6.77;;
83410;SDS011;73340;53.132;8.174;2023-11-21T09:05:10;14.60;;;7.53;;
83410;SDS011;73340;53.132;8.174;2023-11-21T09:07:35;15.57;;;7.25;;
83410;SDS011;73340;53.132;8.174;2023-11-21T09:10:01;13.65;;;6.70;;
83410;SDS011;73340;53.132;8.174;2023-11-21T09:12:27;14.23;;;6.88;;
83410;SDS011;73340;53.132;8.174;2023-11-21T09:14:52;16.73;;;6.97;;
83410;SDS011;73340;53.132;8.174;2023-11-21T09:17:17;13.77;;;7.37;;
83410;SDS011;73340;53.132;8.174;2023-11-21T09:19:42;12.43;;;6.23;;
83410;SDS011;73340;53.132;8.174;2023-11-21T09:22:15;14.32;;;6.65;;
83410;SDS011;73340;53.132;8.174;2023-11-21T09:24:40;12.45;;;6.85;;
83410;SDS011;73340;53.132;8.174;2023-11-21T09:27:05;12.80;;;6.83;;
83410;SDS011;73340;53.132;8.174;2023-11-21T09:29:30;15.30;;;7.47;;
83410;SDS011;73340;53.132;8.174;2023-11-21T09:31:56;12.25;;;6.45;;
83410;SDS011;73340;53.132;8.174;2023-11-21T09:34:24;14.48;;;6.80;;
83410;SDS011;73340;53.132;8.174;2023-11-21T09:36:50;14.50;;;6.88;;
83410;SDS011;73340;53.132;8.174;2023-11-21T09:39:15;13.57;;;6.15;;
83410;SDS011;73340;53.132;8.174;2023-11-21T09:41:43;14.57;;;7.47;;
83410;SDS011;73340;53.132;8.174;2023-11-21T09:44:09;14.18;;;7.22;;
83410;SDS011;73340;53.132;8.174;2023-11-21T09:46:38;13.00;;;6.43;;
83410;SDS011;73340;53.132;8.174;2023-11-21T09:49:05;15.60;;;7.38;;
83410;SDS011;73340;53.132;8.174;2023-11-21T09:51:33;13.23;;;6.68;;
83410;SDS011;73340;53.132;8.174;2023-11-21T09:54:03;12.40;;;6.20;;
83410;SDS011;73340;53.132;8.174;2023-11-21T09:56:33;13.55;;;6.45;;
83410;SDS011;73340;53.132;8.174;2023-11-21T09:58:59;14.85;;;6.68;;
83410;SDS011;73340;53.132;8.174;2023-11-21T10:01:29;14.07;;;6.57;;
83410;SDS011;73340;53.132;8.174;2023-11-21T10:03:54;12.02;;;6.20;;
83410;SDS011;73340;53.132;8.174;2023-11-21T10:06:21;14.13;;;7.45;;
83410;SDS011;73340;53.132;8.174;2023-11-21T10:08:47;14.20;;;7.10;;
83410;SDS011;73340;53.132;8.174;2023-11-21T10:11:15;13.95;;;6.50;;
83410;SDS011;73340;53.132;8.174;2023-11-21T10:13:42;14.38;;;6.93;;
83410;SDS011;73340;53.132;8.174;2023-11-21T10:16:08;11.52;;;6.28;;
83410;SDS011;73340;53.132;8.174;2023-11-21T10:18:36;14.48;;;6.38;;
83410;SDS011;73340;53.132;8.174;2023-11-21T10:21:04;14.43;;;6.90;;
83410;SDS011;73340;53.132;8.174;2023-11-21T10:23:31;13.15;;;6.60;;
83410;SDS011;73340;53.132;8.174;2023-11-21T10:25:56;11.67;;;6.53;;
83410;SDS011;73340;53.132;8.174;2023-11-21T10:28:24;10.60;;;5.70;;
83410;SDS011;73340;53.132;8.174;2023-11-21T10:30:49;13.03;;;5.90;;
83410;SDS011;73340;53.132;8.174;2023-11-21T10:33:14;12.87;;;6.70;;
83410;SDS011;73340;53.132;8.174;2023-11-21T10:35:46;12.30;;;6.80;;
83410;SDS011;73340;53.132;8.174;2023-11-21T10:38:19;12.57;;;6.50;;
83410;SDS011;73340;53.132;8.174;2023-11-21T10:40:49;12.55;;;6.55;;
83410;SDS011;73340;53.132;8.174;2023-11-21T10:43:14;10.80;;;6.03;;
83410;SDS011;73340;53.132;8.174;2023-11-21T10:45:40;11.95;;;5.97;;
83410;SDS011;73340;53.132;8.174;2023-11-21T10:48:06;13.57;;;6.95;;
83410;SDS011;73340;53.132;8.174;2023-11-21T10:50:33;10.95;;;5.93;;
83410;SDS011;73340;53.132;8.174;2023-11-21T10:53:00;13.07;;;6.50;;
83410;SDS011;73340;53.132;8.174;2023-11-21T10:55:26;14.88;;;7.20;;
83410;SDS011;73340;53.132;8.174;2023-11-21T10:57:52;12.82;;;6.18;;
83410;SDS011;73340;53.132;8.174;2023-11-21T11:00:18;12.65;;;6.78;;
83410;SDS011;73340;53.132;8.174;2023-11-21T11:02:48;11.10;;;6.45;;
83410;SDS011;73340;53.132;8.174;2023-11-21T11:05:15;12.88;;;6.43;;
83410;SDS011;73340;53.132;8.174;2023-11-21T11:07:40;16.05;;;7.35;;
83410;SDS011;73340;53.132;8.174;2023-11-21T11:10:08;13.27;;;6.85;;
83410;SDS011;73340;53.132;8.174;2023-11-21T11:12:34;11.40;;;6.32;;
83410;SDS011;73340;53.132;8.174;2023-11-21T11:15:00;12.38;;;5.88;;
83410;SDS011;73340;53.132;8.174;2023-11-21T11:17:26;12.38;;;6.15;;
83410;SDS011;73340;53.132;8.174;2023-11-21T11:19:51;14.10;;;7.00;;
83410;SDS011;73340;53.132;8.174;2023-11-21T11:22:19;12.87;;;6.40;;
83410;SDS011;73340;53.132;8.174;2023-11-21T11:24:54;12.40;;;6.50;;
83410;SDS011;73340;53.132;8.174;2023-11-21T11:35:26;11.25;;;6.07;;
83410;SDS011;73340;53.132;8.174;2023-11-21T11:37:55;16.15;;;7.32;;
83410;SDS011;73340;53.132;8.174;2023-11-21T11:40:21;12.20;;;6.03;;
83410;SDS011;73340;53.132;8.174;2023-11-21T11:42:56;12.70;;;5.95;;
83410;SDS011;73340;53.132;8.174;2023-11-21T11:45:22;11.45;;;6.63;;
83410;SDS011;73340;53.132;8.174;2023-11-21T11:47:47;10.47;;;6.00;;
83410;SDS011;73340;53.132;8.174;2023-11-21T11:50:13;11.15;;;6.10;;
83410;SDS011;73340;53.132;8.174;2023-11-21T11:52:42;12.13;;;5.35;;
83410;SDS011;73340;53.132;8.174;2023-11-21T11:55:08;10.38;;;5.28;;
83410;SDS011;73340;53.132;8.174;2023-11-21T11:57:37;12.75;;;5.80;;
83410;SDS011;73340;53.132;8.174;2023-11-21T12:00:19;12.30;;;6.25;;
83410;SDS011;73340;53.132;8.174;2023-11-21T12:02:51;11.25;;;5.25;;
83410;SDS011;73340;53.132;8.174;2023-11-21T12:05:20;12.00;;;6.50;;
83410;SDS011;73340;53.132;8.174;2023-11-21T12:07:50;8.93;;;5.55;;
83410;SDS011;73340;53.132;8.174;2023-11-21T12:10:18;11.15;;;5.22;;
83410;SDS011;73340;53.132;8.174;2023-11-21T12:12:47;22.45;;;6.03;;
83410;SDS011;73340;53.132;8.174;2023-11-21T12:15:13;11.20;;;5.78;;
83410;SDS011;73340;53.132;8.174;2023-11-21T12:17:38;11.00;;;5.28;;
83410;SDS011;73340;53.132;8.174;2023-11-21T12:20:04;9.85;;;5.22;;
83410;SDS011;73340;53.132;8.174;2023-11-21T12:22:31;11.00;;;5.70;;
83410;SDS011;73340;53.132;8.174;2023-11-21T12:24:56;11.57;;;5.57;;
83410;SDS011;73340;53.132;8.174;2023-11-21T12:27:22;15.17;;;5.47;;
83410;SDS011;73340;53.132;8.174;2023-11-21T12:29:47;11.37;;;4.87;;
83410;SDS011;73340;53.132;8.174;2023-11-21T12:32:12;7.85;;;4.50;;
83410;SDS011;73340;53.132;8.174;2023-11-21T12:34:41;7.95;;;4.10;;
83410;SDS011;73340;53.132;8.174;2023-11-21T12:37:06;7.68;;;4.03;;
83410;SDS011;73340;53.132;8.174;2023-11-21T12:39:31;9.43;;;4.57;;
83410;SDS011;73340;53.132;8.174;2023-11-21T12:41:57;7.43;;;4.03;;
83410;SDS011;73340;53.132;8.174;2023-11-21T12:44:22;5.03;;;2.92;;
83410;SDS011;73340;53.132;8.174;2023-11-21T12:46:48;5.65;;;3.47;;
83410;SDS011;73340;53.132;8.174;2023-11-21T12:49:14;4.40;;;2.78;;
83410;SDS011;73340;53.132;8.174;2023-11-21T12:51:43;12.27;;;3.75;;
83410;SDS011;73340;53.132;8.174;2023-11-21T12:54:08;5.15;;;3.20;;
83410;SDS011;73340;53.132;8.174;2023-11-21T12:56:37;5.05;;;3.00;;
83410;SDS011;73340;53.132;8.174;2023-11-21T12:59:03;5.72;;;3.25;;
83410;SDS011;73340;53.132;8.174;2023-11-21T13:01:29;7.53;;;4.28;;
83410;SDS011;73340;53.132;8.174;2023-11-21T13:03:57;5.97;;;3.60;;
83410;SDS011;73340;53.132;8.174;2023-11-21T13:06:22;6.93;;;3.70;;
83410;SDS011;73340;53.132;8.174;2023-11-21T13:08:50;6.57;;;4.40;;
83410;SDS011;73340;53.132;8.174;2023-11-21T13:11:15;9.57;;;4.33;;
83410;SDS011;73340;53.132;8.174;2023-11-21T13:13:42;8.82;;;4.55;;
83410;SDS011;73340;53.132;8.174;2023-11-21T13:16:11;6.10;;;3.78;;
83410;SDS011;73340;53.132;8.174;2023-11-21T13:18:36;7.28;;;4.13;;
83410;SDS011;73340;53.132;8.174;2023-11-21T13:21:03;7.10;;;3.85;;
83410;SDS011;73340;53.132;8.174;2023-11-21T13:23:39;7.68;;;4.10;;
83410;SDS011;73340;53.132;8.174;2023-11-21T13:26:05;8.07;;;4.28;;
83410;SDS011;73340;53.132;8.174;2023-11-21T13:28:31;5.85;;;3.92;;
83410;SDS011;73340;53.132;8.174;2023-11-21T13:30:58;7.38;;;4.10;;
83410;SDS011;73340;53.132;8.174;2023-11-21T13:33:27;6.45;;;4.28;;
83410;SDS011;73340;53.132;8.174;2023-11-21T13:35:53;7.05;;;4.50;;
83410;SDS011;73340;53.132;8.174;2023-11-21T13:38:20;7.47;;;3.90;;
83410;SDS011;73340;53.132;8.174;2023-11-21T13:40:51;7.13;;;4.45;;
83410;SDS011;73340;53.132;8.174;2023-11-21T13:43:19;7.63;;;4.15;;
83410;SDS011;73340;53.132;8.174;2023-11-21T13:45:46;9.40;;;4.10;;
83410;SDS011;73340;53.132;8.174;2023-11-21T13:48:11;7.82;;;4.07;;
83410;SDS011;73340;53.132;8.174;2023-11-21T13:50:41;8.07;;;4.22;;
83410;SDS011;73340;53.132;8.174;2023-11-21T13:53:20;7.28;;;3.85;;
83410;SDS011;73340;53.132;8.174;2023-11-21T13:55:48;9.77;;;4.95;;
83410;SDS011;73340;53.132;8.174;2023-11-21T13:58:14;8.02;;;4.28;;
83410;SDS011;73340;53.132;8.174;2023-11-21T14:00:44;8.98;;;4.53;;
83410;SDS011;73340;53.132;8.174;2023-11-21T14:03:13;9.88;;;4.88;;
83410;SDS011;73340;53.132;8.174;2023-11-21T14:05:47;6.85;;;3.90;;
83410;SDS011;73340;53.132;8.174;2023-11-21T14:08:16;8.48;;;4.07;;
83410;SDS011;73340;53.132;8.174;2023-11-21T14:10:45;9.23;;;4.82;;
83410;SDS011;73340;53.132;8.174;2023-11-21T14:13:14;9.75;;;5.05;;
83410;SDS011;73340;53.132;8.174;2023-11-21T14:15:41;8.40;;;4.97;;
83410;SDS011;73340;53.132;8.174;2023-11-21T14:18:08;6.40;;;4.28;;
83410;SDS011;73340;53.132;8.174;2023-11-21T14:20:36;11.13;;;6.50;;
83410;SDS011;73340;53.132;8.174;2023-11-21T14:23:02;8.38;;;4.07;;
83410;SDS011;73340;53.132;8.174;2023-11-21T14:25:28;6.20;;;4.40;;
83410;SDS011;73340;53.132;8.174;2023-11-21T14:27:53;8.73;;;5.40;;
83410;SDS011;73340;53.132;8.174;2023-11-21T14:30:18;6.17;;;4.00;;
83410;SDS011;73340;53.132;8.174;2023-11-21T14:32:47;8.23;;;5.38;;
83410;SDS011;73340;53.132;8.174;2023-11-21T14:35:12;8.15;;;4.10;;